createdAt,value
2017-11-24T00:00:32.891Z,1005.31
2017-11-24T00:01:42.374Z,1005.3
2017-11-24T00:02:51.621Z,1005.27
2017-11-24T00:04:00.805Z,1005.32
2017-11-24T00:05:09.729Z,1005.24
2017-11-24T00:06:19.001Z,1005.23
2017-11-24T00:07:27.641Z,1005.17
2017-11-24T00:08:36.618Z,1005.17
2017-11-24T00:09:46.054Z,1005.14
2017-11-24T00:10:54.966Z,1005.12
2017-11-24T00:12:04.253Z,1005.1
2017-11-24T00:13:13.994Z,1005.07
2017-11-24T00:14:23.167Z,1005.08
2017-11-24T00:15:32.123Z,1005.09
2017-11-24T00:16:41.303Z,1005.08
2017-11-24T00:17:50.707Z,1005.01
2017-11-24T00:19:00.199Z,1005.03
2017-11-24T00:20:08.838Z,1005.08
2017-11-24T00:21:17.777Z,1005.1
2017-11-24T00:22:26.957Z,1005.05
2017-11-24T00:23:36.409Z,1005.09
2017-11-24T00:24:45.772Z,1005.1
2017-11-24T00:25:54.420Z,1005.08
2017-11-24T00:27:04.137Z,1005.1
2017-11-24T00:28:13.160Z,1005.09
2017-11-24T00:29:22.608Z,1005.06
2017-11-24T00:30:31.539Z,1005.07
2017-11-24T00:31:40.869Z,1005.1
2017-11-24T00:32:50.313Z,1005.12
2017-11-24T00:33:59.538Z,1005.15
2017-11-24T00:35:08.698Z,1005.11
2017-11-24T00:36:17.608Z,1005.13
2017-11-24T00:37:26.793Z,1005.15
2017-11-24T00:38:35.747Z,1005.09
2017-11-24T00:39:44.933Z,1005.07
2017-11-24T00:40:54.107Z,1005.07
2017-11-24T00:42:03.012Z,1005.1
2017-11-24T00:43:12.168Z,1005.1
2017-11-24T00:44:21.585Z,1005.04
2017-11-24T00:45:30.547Z,1005.07
2017-11-24T00:46:40.039Z,1005.03
2017-11-24T00:47:49.204Z,1005
2017-11-24T00:48:58.401Z,1004.99
2017-11-24T00:50:07.318Z,1004.95
2017-11-24T00:51:16.268Z,1004.88
2017-11-24T00:52:25.436Z,1004.87
2017-11-24T00:53:34.624Z,1004.84
2017-11-24T00:54:43.281Z,1004.84
2017-11-24T00:55:52.454Z,1004.8
2017-11-24T00:57:01.894Z,1004.79
2017-11-24T00:58:11.409Z,1004.76
2017-11-24T00:59:20.344Z,1004.8
2017-11-24T01:00:29.297Z,1004.74
2017-11-24T01:01:38.754Z,1004.75
2017-11-24T01:02:47.935Z,1004.72
2017-11-24T01:03:57.121Z,1004.7
2017-11-24T01:05:06.276Z,1004.66
2017-11-24T01:06:15.458Z,1004.63
2017-11-24T01:07:25.145Z,1004.64
2017-11-24T01:08:34.066Z,1004.55
2017-11-24T01:09:42.985Z,1004.51
2017-11-24T01:10:51.934Z,1004.45
2017-11-24T01:12:01.375Z,1004.43
2017-11-24T01:13:10.817Z,1004.36
2017-11-24T01:14:20.002Z,1004.23
2017-11-24T01:15:29.211Z,1004.19
2017-11-24T01:16:38.388Z,1004.23
2017-11-24T01:17:47.560Z,1004.25
2017-11-24T01:18:56.746Z,1004.29
2017-11-24T01:20:05.669Z,1004.32
2017-11-24T01:21:14.603Z,1004.31
2017-11-24T01:22:24.316Z,1004.29
2017-11-24T01:23:33.817Z,1004.32
2017-11-24T01:24:42.718Z,1004.27
2017-11-24T01:25:52.159Z,1004.24
2017-11-24T01:27:01.061Z,1004.21
2017-11-24T01:28:09.973Z,1004.13
2017-11-24T01:29:19.140Z,1004.17
2017-11-24T01:30:28.336Z,1004.12
2017-11-24T01:31:37.243Z,1004.14
2017-11-24T01:32:46.678Z,1004.14
2017-11-24T01:33:56.117Z,1004.09
2017-11-24T01:35:05.279Z,1004
2017-11-24T01:36:14.456Z,1004.01
2017-11-24T01:37:23.945Z,1004.01
2017-11-24T01:38:33.692Z,1004.01
2017-11-24T01:39:42.632Z,1003.98
2017-11-24T01:40:51.845Z,1003.96
2017-11-24T01:42:00.754Z,1003.93
2017-11-24T01:43:09.672Z,1003.95
2017-11-24T01:44:18.576Z,1003.96
2017-11-24T01:45:27.476Z,1003.97
2017-11-24T01:46:36.125Z,1003.98
2017-11-24T01:47:45.051Z,1004
2017-11-24T01:48:54.479Z,1003.96
2017-11-24T01:50:03.643Z,1003.94
2017-11-24T01:51:12.591Z,1003.9
2017-11-24T01:52:21.769Z,1003.85
2017-11-24T01:53:31.240Z,1003.81
2017-11-24T01:54:40.178Z,1003.75
2017-11-24T01:55:49.098Z,1003.64
2017-11-24T01:56:58.595Z,1003.68
2017-11-24T01:58:08.031Z,1003.71
2017-11-24T01:59:16.967Z,1003.64
2017-11-24T02:00:25.607Z,1003.63
2017-11-24T02:01:34.254Z,1003.58
2017-11-24T02:02:43.450Z,1003.57
2017-11-24T02:03:52.093Z,1003.49
2017-11-24T02:05:01.259Z,1003.46
2017-11-24T02:06:10.191Z,1003.51
2017-11-24T02:07:19.125Z,1003.52
2017-11-24T02:08:28.576Z,1003.52
2017-11-24T02:09:37.747Z,1003.5
2017-11-24T02:10:46.921Z,1003.4
2017-11-24T02:11:55.830Z,1003.31
2017-11-24T02:13:04.493Z,1003.29
2017-11-24T02:14:13.394Z,1003.29
2017-11-24T02:15:22.325Z,1003.28
2017-11-24T02:16:31.240Z,1003.33
2017-11-24T02:17:39.902Z,1003.32
2017-11-24T02:18:48.834Z,1003.29
2017-11-24T02:19:57.798Z,1003.27
2017-11-24T02:21:06.973Z,1003.22
2017-11-24T02:22:16.411Z,1003.16
2017-11-24T02:23:25.620Z,1003.13
2017-11-24T02:24:34.801Z,1003.09
2017-11-24T02:25:43.776Z,1003.04
2017-11-24T02:26:52.968Z,1002.99
2017-11-24T02:28:01.920Z,1002.92
2017-11-24T02:29:11.407Z,1002.87
2017-11-24T02:30:20.073Z,1002.84
2017-11-24T02:31:29.237Z,1002.83
2017-11-24T02:32:38.144Z,1002.82
2017-11-24T02:33:46.784Z,1002.8
2017-11-24T02:34:55.957Z,1002.83
2017-11-24T02:36:05.748Z,1002.77
2017-11-24T02:37:14.679Z,1002.64
2017-11-24T02:38:23.604Z,1002.59
2017-11-24T02:39:33.112Z,1002.46
2017-11-24T02:40:42.274Z,1002.42
2017-11-24T02:41:51.440Z,1002.35
2017-11-24T02:43:00.925Z,1002.35
2017-11-24T02:44:09.833Z,1002.29
2017-11-24T02:45:19.034Z,1002.29
2017-11-24T02:46:28.207Z,1002.31
2017-11-24T02:47:37.720Z,1002.29
2017-11-24T02:48:46.933Z,1002.26
2017-11-24T02:49:55.856Z,1002.26
2017-11-24T02:51:05.307Z,1002.23
2017-11-24T02:52:14.762Z,1002.26
2017-11-24T02:53:24.262Z,1002.25
2017-11-24T02:54:33.441Z,1002.23
2017-11-24T02:55:42.623Z,1002.12
2017-11-24T02:56:51.777Z,1002.14
2017-11-24T02:58:01.234Z,1002.16
2017-11-24T02:59:10.697Z,1002.18
2017-11-24T03:00:19.978Z,1002.12
2017-11-24T03:01:29.385Z,1002.04
2017-11-24T03:02:38.841Z,1001.98
2017-11-24T03:03:48.022Z,1001.95
2017-11-24T03:04:56.942Z,1001.94
2017-11-24T03:06:05.869Z,1001.99
2017-11-24T03:07:14.787Z,1001.98
2017-11-24T03:08:23.699Z,1002.01
2017-11-24T03:09:33.152Z,1002.02
2017-11-24T03:10:42.586Z,1002.01
2017-11-24T03:11:51.526Z,1002.01
2017-11-24T03:13:00.415Z,1001.99
2017-11-24T03:14:09.610Z,1001.96
2017-11-24T03:15:18.535Z,1001.92
2017-11-24T03:16:27.464Z,1001.87
2017-11-24T03:17:36.115Z,1001.84
2017-11-24T03:18:45.016Z,1001.83
2017-11-24T03:19:54.524Z,1001.84
2017-11-24T03:21:03.724Z,1001.84
2017-11-24T03:22:12.618Z,1001.81
2017-11-24T03:23:21.804Z,1001.82
2017-11-24T03:24:31.342Z,1001.82
2017-11-24T03:25:40.507Z,1001.77
2017-11-24T03:26:49.436Z,1001.8
2017-11-24T03:27:58.076Z,1001.87
2017-11-24T03:29:06.987Z,1001.88
2017-11-24T03:30:16.707Z,1001.92
2017-11-24T03:31:26.699Z,1001.98
2017-11-24T03:32:35.627Z,1001.99
2017-11-24T03:33:45.076Z,1001.98
2017-11-24T03:34:54.021Z,1002.01
2017-11-24T03:36:03.456Z,1002
2017-11-24T03:37:12.360Z,1002.01
2017-11-24T03:38:21.263Z,1002.03
2017-11-24T03:39:30.209Z,1002
2017-11-24T03:40:39.388Z,1001.96
2017-11-24T03:41:48.587Z,1001.99
2017-11-24T03:42:58.020Z,1001.99
2017-11-24T03:44:07.487Z,1001.92
2017-11-24T03:45:16.928Z,1001.9
2017-11-24T03:46:26.355Z,1001.92
2017-11-24T03:47:35.282Z,1001.97
2017-11-24T03:48:44.984Z,1001.99
2017-11-24T03:49:53.912Z,1002.01
2017-11-24T03:51:03.097Z,1002.08
2017-11-24T03:52:12.300Z,1002.09
2017-11-24T03:53:21.207Z,1002.06
2017-11-24T03:54:30.429Z,1001.83
2017-11-24T03:55:39.375Z,1001.67
2017-11-24T03:56:48.285Z,1001.7
2017-11-24T03:57:57.204Z,1001.67
2017-11-24T03:59:06.107Z,1001.74
2017-11-24T04:00:15.284Z,1001.82
2017-11-24T04:01:23.927Z,1002.02
2017-11-24T04:02:33.105Z,1002.13
2017-11-24T04:03:42.039Z,1002.01
2017-11-24T04:04:51.189Z,1001.81
2017-11-24T04:06:00.375Z,1001.76
2017-11-24T04:07:09.595Z,1001.84
2017-11-24T04:08:18.504Z,1002.09
2017-11-24T04:09:27.998Z,1002.25
2017-11-24T04:10:37.173Z,1002.1
2017-11-24T04:11:46.348Z,1001.86
2017-11-24T04:12:54.985Z,1001.63
2017-11-24T04:14:03.913Z,1001.56
2017-11-24T04:15:12.553Z,1001.6
2017-11-24T04:16:22.026Z,1001.67
2017-11-24T04:17:31.205Z,1001.73
2017-11-24T04:18:40.116Z,1001.67
2017-11-24T04:19:48.782Z,1001.67
2017-11-24T04:20:57.945Z,1001.7
2017-11-24T04:22:07.126Z,1001.69
2017-11-24T04:23:16.307Z,1001.65
2017-11-24T04:24:25.499Z,1001.63
2017-11-24T04:25:34.424Z,1001.62
2017-11-24T04:26:43.326Z,1001.58
2017-11-24T04:27:52.773Z,1001.61
2017-11-24T04:29:01.681Z,1001.51
2017-11-24T04:30:11.116Z,1001.5
2017-11-24T04:31:20.322Z,1001.48
2017-11-24T04:32:29.757Z,1001.37
2017-11-24T04:33:38.663Z,1001.32
2017-11-24T04:34:47.623Z,1001.34
2017-11-24T04:35:56.578Z,1001.33
2017-11-24T04:37:05.745Z,1001.33
2017-11-24T04:38:15.443Z,1001.3
2017-11-24T04:39:24.895Z,1001.3
2017-11-24T04:40:33.816Z,1001.3
2017-11-24T04:41:42.972Z,1001.32
2017-11-24T04:42:51.891Z,1001.31
2017-11-24T04:44:00.820Z,1001.28
2017-11-24T04:45:10.080Z,1001.22
2017-11-24T04:46:19.258Z,1001.2
2017-11-24T04:47:27.924Z,1001.23
2017-11-24T04:48:36.901Z,1001.21
2017-11-24T04:49:46.340Z,1001.12
2017-11-24T04:50:54.984Z,1001.02
2017-11-24T04:52:03.642Z,1001.08
2017-11-24T04:53:12.538Z,1001.06
2017-11-24T04:54:22.410Z,1001
2017-11-24T04:55:31.602Z,1000.98
2017-11-24T04:56:40.512Z,1000.94
2017-11-24T04:57:49.682Z,1000.93
2017-11-24T04:58:58.881Z,1000.89
2017-11-24T05:00:07.809Z,1000.87
2017-11-24T05:01:17.501Z,1000.86
2017-11-24T05:02:26.668Z,1000.82
2017-11-24T05:03:36.121Z,1000.78
2017-11-24T05:04:45.307Z,1000.77
2017-11-24T05:05:54.769Z,1000.76
2017-11-24T05:07:03.951Z,1000.71
2017-11-24T05:08:13.141Z,1000.64
2017-11-24T05:09:22.049Z,1000.62
2017-11-24T05:10:30.969Z,1000.62
2017-11-24T05:11:40.146Z,1000.61
2017-11-24T05:12:49.316Z,1000.53
2017-11-24T05:13:58.484Z,1000.51
2017-11-24T05:15:07.926Z,1000.55
2017-11-24T05:16:16.843Z,1000.5
2017-11-24T05:17:25.801Z,1000.48
2017-11-24T05:18:35.253Z,1000.51
2017-11-24T05:19:44.431Z,1000.49
2017-11-24T05:20:53.616Z,1000.45
2017-11-24T05:22:03.056Z,1000.53
2017-11-24T05:23:12.495Z,1000.55
2017-11-24T05:24:21.737Z,1000.61
2017-11-24T05:25:30.639Z,1000.62
2017-11-24T05:26:39.812Z,1000.64
2017-11-24T05:27:49.048Z,1000.68
2017-11-24T05:28:57.951Z,1000.69
2017-11-24T05:30:07.397Z,1000.6
2017-11-24T05:31:16.856Z,1000.58
2017-11-24T05:32:25.545Z,1000.61
2017-11-24T05:33:34.453Z,1000.6
2017-11-24T05:34:43.166Z,1000.64
2017-11-24T05:35:51.833Z,1000.6
2017-11-24T05:37:00.726Z,1000.65
2017-11-24T05:38:09.983Z,1000.55
2017-11-24T05:39:19.453Z,1000.52
2017-11-24T05:41:37.447Z,1000.54
2017-11-24T05:42:46.370Z,1000.65
2017-11-24T05:43:55.366Z,1000.6
2017-11-24T05:45:04.557Z,1000.53
2017-11-24T05:46:13.999Z,1000.48
2017-11-24T05:47:22.631Z,1000.6
2017-11-24T05:48:31.582Z,1000.64
2017-11-24T05:49:40.782Z,1000.72
2017-11-24T05:50:49.696Z,1000.88
2017-11-24T05:51:58.885Z,1000.99
2017-11-24T05:53:08.056Z,1000.9
2017-11-24T05:54:17.246Z,1000.83
2017-11-24T05:55:26.415Z,1000.79
2017-11-24T05:56:36.352Z,1000.73
2017-11-24T05:57:45.797Z,1000.71
2017-11-24T05:58:55.549Z,1000.69
2017-11-24T06:00:04.467Z,1000.71
2017-11-24T06:01:13.681Z,1000.81
2017-11-24T06:02:22.851Z,1000.9
2017-11-24T06:03:32.030Z,1001.09
2017-11-24T06:04:40.967Z,1001.55
2017-11-24T06:05:50.678Z,1001.9
2017-11-24T06:06:59.342Z,1002.03
2017-11-24T06:08:08.545Z,1001.72
2017-11-24T06:09:17.509Z,1001.53
2017-11-24T06:10:27.216Z,1001.63
2017-11-24T06:11:36.146Z,1001.8
2017-11-24T06:12:45.351Z,1001.88
2017-11-24T06:13:54.315Z,1001.86
2017-11-24T06:15:03.559Z,1001.89
2017-11-24T06:16:13.043Z,1001.96
2017-11-24T06:17:22.208Z,1001.89
2017-11-24T06:18:31.134Z,1001.85
2017-11-24T06:19:40.362Z,1001.91
2017-11-24T06:20:49.549Z,1001.91
2017-11-24T06:21:59.048Z,1001.91
2017-11-24T06:23:08.279Z,1001.88
2017-11-24T06:24:17.454Z,1001.86
2017-11-24T06:25:26.700Z,1001.86
2017-11-24T06:26:36.190Z,1001.88
2017-11-24T06:27:45.362Z,1001.89
2017-11-24T06:28:54.000Z,1001.91
2017-11-24T06:30:02.930Z,1001.92
2017-11-24T06:31:12.392Z,1001.98
2017-11-24T06:32:21.361Z,1001.95
2017-11-24T06:33:30.799Z,1001.96
2017-11-24T06:34:39.999Z,1001.97
2017-11-24T06:35:48.646Z,1001.97
2017-11-24T06:36:57.306Z,1001.98
2017-11-24T06:38:06.250Z,1002
2017-11-24T06:39:15.694Z,1002.06
2017-11-24T06:40:24.876Z,1002.1
2017-11-24T06:41:34.114Z,1002.09
2017-11-24T06:42:43.024Z,1002.06
2017-11-24T06:43:52.491Z,1002.07
2017-11-24T06:45:01.425Z,1002.09
2017-11-24T06:46:10.076Z,1002.05
2017-11-24T06:47:18.756Z,1002.06
2017-11-24T06:48:28.202Z,1002.02
2017-11-24T06:49:37.113Z,1001.98
2017-11-24T06:50:46.594Z,1002.03
2017-11-24T06:51:55.517Z,1001.93
2017-11-24T06:53:04.984Z,1001.92
2017-11-24T06:54:14.155Z,1001.94
2017-11-24T06:55:23.324Z,1001.92
2017-11-24T06:56:32.500Z,1001.92
2017-11-24T06:57:41.398Z,1001.93
2017-11-24T06:58:50.381Z,1002.05
2017-11-24T06:59:59.042Z,1002.13
2017-11-24T07:01:08.236Z,1002.18
2017-11-24T07:02:16.891Z,1002.2
2017-11-24T07:03:26.281Z,1002.19
2017-11-24T07:04:34.920Z,1002.17
2017-11-24T07:05:44.121Z,1002.2
2017-11-24T07:06:52.791Z,1002.12
2017-11-24T07:08:01.967Z,1002.11
2017-11-24T07:09:10.868Z,1002.11
2017-11-24T07:10:19.779Z,1002.14
2017-11-24T07:11:29.211Z,1002.14
2017-11-24T07:12:38.378Z,1002.22
2017-11-24T07:13:47.389Z,1002.25
2017-11-24T07:14:56.953Z,1002.28
2017-11-24T07:16:06.144Z,1002.38
2017-11-24T07:17:15.318Z,1002.34
2017-11-24T07:18:24.750Z,1002.37
2017-11-24T07:19:33.404Z,1002.28
2017-11-24T07:20:43.390Z,1002.34
2017-11-24T07:21:52.894Z,1002.39
2017-11-24T07:23:02.080Z,1002.41
2017-11-24T07:24:11.264Z,1002.43
2017-11-24T07:25:19.918Z,1002.52
2017-11-24T07:26:29.100Z,1002.57
2017-11-24T07:27:38.017Z,1002.66
2017-11-24T07:28:46.676Z,1002.7
2017-11-24T07:29:55.594Z,1002.86
2017-11-24T07:31:04.767Z,1002.93
2017-11-24T07:32:13.956Z,1002.96
2017-11-24T07:33:22.891Z,1002.98
2017-11-24T07:34:31.550Z,1002.99
2017-11-24T07:35:40.733Z,1003.12
2017-11-24T07:36:50.424Z,1003.2
2017-11-24T07:37:59.864Z,1003.23
2017-11-24T07:39:08.770Z,1003.25
2017-11-24T07:40:17.962Z,1003.23
2017-11-24T07:41:26.610Z,1003.24
2017-11-24T07:42:35.523Z,1003.24
2017-11-24T07:43:44.978Z,1003.28
2017-11-24T07:44:53.655Z,1003.26
2017-11-24T07:46:02.305Z,1003.29
2017-11-24T07:47:11.484Z,1003.36
2017-11-24T07:48:20.924Z,1003.44
2017-11-24T07:49:30.361Z,1003.4
2017-11-24T07:50:39.288Z,1003.34
2017-11-24T07:51:48.265Z,1003.36
2017-11-24T07:52:57.997Z,1003.34
2017-11-24T07:54:07.184Z,1003.3
2017-11-24T07:55:16.105Z,1003.32
2017-11-24T07:56:25.024Z,1003.36
2017-11-24T07:57:34.207Z,1003.43
2017-11-24T07:58:43.907Z,1003.5
2017-11-24T07:59:52.817Z,1003.52
2017-11-24T08:01:01.730Z,1003.46
2017-11-24T08:02:11.451Z,1003.45
2017-11-24T08:03:20.367Z,1003.42
2017-11-24T08:04:29.276Z,1003.48
2017-11-24T08:05:38.190Z,1003.54
2017-11-24T08:06:47.631Z,1003.49
2017-11-24T08:07:56.560Z,1003.49
2017-11-24T08:09:05.471Z,1003.49
2017-11-24T08:10:14.382Z,1003.52
2017-11-24T08:11:23.830Z,1003.5
2017-11-24T08:12:33.238Z,1003.43
2017-11-24T08:13:42.699Z,1003.44
2017-11-24T08:14:51.899Z,1003.48
2017-11-24T08:16:01.080Z,1003.46
2017-11-24T08:17:10.776Z,1003.41
2017-11-24T08:18:19.496Z,1003.3
2017-11-24T08:19:28.456Z,1003.3
2017-11-24T08:20:37.430Z,1003.28
2017-11-24T08:21:47.132Z,1003.39
2017-11-24T08:22:56.308Z,1003.39
2017-11-24T08:24:05.493Z,1003.42
2017-11-24T08:25:14.928Z,1003.42
2017-11-24T08:26:23.840Z,1003.44
2017-11-24T08:27:32.759Z,1003.39
2017-11-24T08:28:42.442Z,1003.55
2017-11-24T08:29:51.642Z,1003.62
2017-11-24T08:31:00.865Z,1003.65
2017-11-24T08:32:10.597Z,1003.68
2017-11-24T08:33:19.767Z,1003.66
2017-11-24T08:34:29.498Z,1003.69
2017-11-24T08:35:38.939Z,1003.7
2017-11-24T08:36:48.188Z,1003.71
2017-11-24T08:37:57.636Z,1003.66
2017-11-24T08:39:06.297Z,1003.66
2017-11-24T08:40:15.725Z,1003.61
2017-11-24T08:41:24.640Z,1003.6
2017-11-24T08:42:34.115Z,1003.52
2017-11-24T08:43:43.318Z,1003.51
2017-11-24T08:44:52.189Z,1003.5
2017-11-24T08:46:01.376Z,1003.6
2017-11-24T08:47:10.828Z,1003.73
2017-11-24T08:48:20.296Z,1003.81
2017-11-24T08:49:29.835Z,1003.86
2017-11-24T08:50:38.786Z,1003.93
2017-11-24T08:51:47.697Z,1003.94
2017-11-24T08:52:57.209Z,1003.91
2017-11-24T08:54:06.643Z,1003.91
2017-11-24T08:55:15.594Z,1003.89
2017-11-24T08:56:25.088Z,1003.87
2017-11-24T08:57:34.333Z,1003.87
2017-11-24T08:58:44.046Z,1003.96
2017-11-24T08:59:52.702Z,1004.07
2017-11-24T09:01:01.824Z,1004.15
2017-11-24T09:02:11.177Z,1004.18
2017-11-24T09:03:20.819Z,1004.18
2017-11-24T09:04:29.849Z,1004.18
2017-11-24T09:05:39.428Z,1004.24
2017-11-24T09:06:48.689Z,1004.25
2017-11-24T09:07:58.059Z,1004.27
2017-11-24T09:09:07.050Z,1004.28
2017-11-24T09:10:16.308Z,1004.3
2017-11-24T09:11:25.557Z,1004.32
2017-11-24T09:12:34.820Z,1004.34
2017-11-24T09:13:43.566Z,1004.35
2017-11-24T09:14:52.706Z,1004.42
2017-11-24T09:16:01.978Z,1004.45
2017-11-24T09:17:10.686Z,1004.45
2017-11-24T09:18:20.707Z,1004.46
2017-11-24T09:19:29.734Z,1004.38
2017-11-24T09:20:39.233Z,1004.4
2017-11-24T09:21:49.358Z,1004.39
2017-11-24T09:22:58.539Z,1004.41
2017-11-24T09:24:07.717Z,1004.42
2017-11-24T09:25:16.637Z,1004.44
2017-11-24T09:26:26.089Z,1004.5
2017-11-24T09:27:35.000Z,1004.57
2017-11-24T09:28:44.745Z,1004.61
2017-11-24T09:29:54.135Z,1004.56
2017-11-24T09:31:03.762Z,1004.58
2017-11-24T09:32:13.236Z,1004.52
2017-11-24T09:33:22.707Z,1004.52
2017-11-24T09:34:32.274Z,1004.51
2017-11-24T09:35:41.826Z,1004.51
2017-11-24T09:36:50.799Z,1004.52
2017-11-24T09:38:00.731Z,1004.6
2017-11-24T09:39:09.775Z,1004.59
2017-11-24T09:40:18.985Z,1004.61
2017-11-24T09:41:27.700Z,1004.62
2017-11-24T09:42:36.911Z,1004.64
2017-11-24T09:43:45.913Z,1004.69
2017-11-24T09:44:54.878Z,1004.75
2017-11-24T09:46:04.762Z,1004.81
2017-11-24T09:47:14.164Z,1004.78
2017-11-24T09:48:23.373Z,1004.78
2017-11-24T09:49:32.755Z,1004.84
2017-11-24T09:50:41.519Z,1004.88
2017-11-24T09:51:50.575Z,1004.94
2017-11-24T09:52:59.723Z,1005.06
2017-11-24T09:54:09.072Z,1005.1
2017-11-24T09:55:19.271Z,1005.11
2017-11-24T09:56:28.420Z,1005.09
2017-11-24T09:57:37.880Z,1005.08
2017-11-24T09:58:47.366Z,1005.06
2017-11-24T09:59:56.078Z,1005.05
2017-11-24T10:01:05.616Z,1005.06
2017-11-24T10:02:14.892Z,1005.1
2017-11-24T10:03:24.620Z,1005.13
2017-11-24T10:04:33.567Z,1005.12
2017-11-24T10:05:42.602Z,1005.11
2017-11-24T10:06:51.709Z,1005.05
2017-11-24T10:08:00.737Z,1005.13
2017-11-24T10:09:09.440Z,1005.18
2017-11-24T10:10:18.537Z,1005.34
2017-11-24T10:11:27.795Z,1005.4
2017-11-24T10:12:36.814Z,1005.39
2017-11-24T10:13:45.601Z,1005.4
2017-11-24T10:14:55.148Z,1005.52
2017-11-24T10:16:04.505Z,1005.52
2017-11-24T10:17:13.828Z,1005.57
2017-11-24T10:18:23.355Z,1005.56
2017-11-24T10:19:32.885Z,1005.55
2017-11-24T10:20:42.478Z,1005.52
2017-11-24T10:21:51.771Z,1005.5
2017-11-24T10:23:00.824Z,1005.47
2017-11-24T10:24:10.231Z,1005.47
2017-11-24T10:25:19.000Z,1005.46
2017-11-24T10:26:28.595Z,1005.44
2017-11-24T10:27:37.939Z,1005.48
2017-11-24T10:28:47.073Z,1005.5
2017-11-24T10:29:56.365Z,1005.53
2017-11-24T10:31:05.907Z,1005.56
2017-11-24T10:32:14.827Z,1005.58
2017-11-24T10:33:24.009Z,1005.57
2017-11-24T10:34:32.728Z,1005.62
2017-11-24T10:35:42.015Z,1005.62
2017-11-24T10:36:51.252Z,1005.68
2017-11-24T10:38:00.166Z,1005.74
2017-11-24T10:39:09.084Z,1005.79
2017-11-24T10:40:18.270Z,1005.77
2017-11-24T10:41:27.473Z,1005.75
2017-11-24T10:42:36.668Z,1005.75
2017-11-24T10:43:46.131Z,1005.75
2017-11-24T10:44:55.299Z,1005.72
2017-11-24T10:46:04.746Z,1005.68
2017-11-24T10:47:14.230Z,1005.68
2017-11-24T10:48:23.694Z,1005.71
2017-11-24T10:49:32.891Z,1005.69
2017-11-24T10:50:42.077Z,1005.67
2017-11-24T10:51:51.530Z,1005.7
2017-11-24T10:53:01.034Z,1005.68
2017-11-24T10:54:10.478Z,1005.67
2017-11-24T10:55:19.394Z,1005.74
2017-11-24T10:56:29.094Z,1005.74
2017-11-24T10:57:38.535Z,1005.78
2017-11-24T10:58:47.719Z,1005.79
2017-11-24T10:59:56.933Z,1005.82
2017-11-24T11:01:05.901Z,1005.82
2017-11-24T11:02:15.090Z,1005.79
2017-11-24T11:03:24.795Z,1005.84
2017-11-24T11:04:33.989Z,1005.81
2017-11-24T11:05:43.183Z,1005.82
2017-11-24T11:06:52.362Z,1005.8
2017-11-24T11:08:01.538Z,1005.8
2017-11-24T11:09:10.446Z,1005.81
2017-11-24T11:10:19.897Z,1005.85
2017-11-24T11:11:29.125Z,1005.85
2017-11-24T11:12:38.029Z,1005.86
2017-11-24T11:13:47.453Z,1005.87
2017-11-24T11:14:56.444Z,1005.91
2017-11-24T11:16:05.363Z,1006.02
2017-11-24T11:17:14.381Z,1006.11
2017-11-24T11:18:24.096Z,1006.12
2017-11-24T11:19:33.543Z,1006.09
2017-11-24T11:20:42.456Z,1006.12
2017-11-24T11:21:51.636Z,1006.17
2017-11-24T11:23:00.562Z,1006.09
2017-11-24T11:24:09.734Z,1006.14
2017-11-24T11:25:18.654Z,1006.17
2017-11-24T11:26:27.567Z,1006.12
2017-11-24T11:27:36.785Z,1006.16
2017-11-24T11:28:45.443Z,1006.19
2017-11-24T11:29:54.371Z,1006.18
2017-11-24T11:31:03.549Z,1006.18
2017-11-24T11:32:12.989Z,1006.19
2017-11-24T11:33:21.634Z,1006.21
2017-11-24T11:34:30.814Z,1006.18
2017-11-24T11:35:39.727Z,1006.24
2017-11-24T11:36:48.641Z,1006.23
2017-11-24T11:37:57.553Z,1006.23
2017-11-24T11:39:06.466Z,1006.26
2017-11-24T11:40:15.668Z,1006.24
2017-11-24T11:41:24.851Z,1006.21
2017-11-24T11:42:33.766Z,1006.23
2017-11-24T11:43:42.683Z,1006.23
2017-11-24T11:44:52.126Z,1006.25
2017-11-24T11:46:00.785Z,1006.25
2017-11-24T11:47:09.709Z,1006.29
2017-11-24T11:48:18.957Z,1006.33
2017-11-24T11:49:28.134Z,1006.38
2017-11-24T11:50:36.802Z,1006.38
2017-11-24T11:51:45.994Z,1006.38
2017-11-24T11:52:54.928Z,1006.37
2017-11-24T11:54:04.426Z,1006.41
2017-11-24T11:55:13.609Z,1006.45
2017-11-24T11:56:22.560Z,1006.43
2017-11-24T11:57:31.230Z,1006.44
2017-11-24T11:58:40.415Z,1006.41
2017-11-24T11:59:49.582Z,1006.4
2017-11-24T12:00:58.241Z,1006.36
2017-11-24T12:02:07.156Z,1006.33
2017-11-24T12:03:16.074Z,1006.34
2017-11-24T12:04:24.981Z,1006.35
2017-11-24T12:05:33.643Z,1006.37
2017-11-24T12:06:42.816Z,1006.41
2017-11-24T12:07:51.471Z,1006.4
2017-11-24T12:09:00.379Z,1006.37
2017-11-24T12:10:09.807Z,1006.35
2017-11-24T12:11:18.997Z,1006.37
2017-11-24T12:12:28.425Z,1006.41
2017-11-24T12:13:37.335Z,1006.39
2017-11-24T12:14:46.813Z,1006.39
2017-11-24T12:15:56.260Z,1006.38
2017-11-24T12:17:05.185Z,1006.42
2017-11-24T12:18:14.092Z,1006.47
2017-11-24T12:19:23.283Z,1006.45
2017-11-24T12:20:32.725Z,1006.43
2017-11-24T12:21:41.901Z,1006.42
2017-11-24T12:22:51.624Z,1006.42
2017-11-24T12:24:01.065Z,1006.42
2017-11-24T12:25:09.985Z,1006.46
2017-11-24T12:26:18.884Z,1006.45
2017-11-24T12:27:28.059Z,1006.44
2017-11-24T12:28:36.981Z,1006.47
2017-11-24T12:29:45.897Z,1006.49
2017-11-24T12:30:55.625Z,1006.5
2017-11-24T12:32:04.541Z,1006.44
2017-11-24T12:33:14.002Z,1006.46
2017-11-24T12:34:22.915Z,1006.46
2017-11-24T12:35:32.111Z,1006.47
2017-11-24T12:36:41.569Z,1006.46
2017-11-24T12:37:51.020Z,1006.49
2017-11-24T12:39:00.267Z,1006.52
2017-11-24T12:40:09.175Z,1006.53
2017-11-24T12:41:18.080Z,1006.58
2017-11-24T12:42:27.514Z,1006.53
2017-11-24T12:43:36.159Z,1006.54
2017-11-24T12:44:45.888Z,1006.61
2017-11-24T12:45:55.361Z,1006.6
2017-11-24T12:47:04.538Z,1006.59
2017-11-24T12:48:13.219Z,1006.63
2017-11-24T12:49:21.841Z,1006.65
2017-11-24T12:50:30.763Z,1006.63
2017-11-24T12:51:39.666Z,1006.64
2017-11-24T12:52:49.113Z,1006.67
2017-11-24T12:53:58.046Z,1006.64
2017-11-24T12:55:07.243Z,1006.66
2017-11-24T12:56:16.677Z,1006.67
2017-11-24T12:57:26.371Z,1006.72
2017-11-24T12:58:35.552Z,1006.76
2017-11-24T12:59:44.756Z,1006.71
2017-11-24T13:00:54.457Z,1006.71
2017-11-24T13:02:03.394Z,1006.7
2017-11-24T13:03:12.293Z,1006.68
2017-11-24T13:04:21.498Z,1006.68
2017-11-24T13:05:30.673Z,1006.69
2017-11-24T13:06:39.588Z,1006.72
2017-11-24T13:07:48.508Z,1006.69
2017-11-24T13:08:58.245Z,1006.73
2017-11-24T13:10:07.425Z,1006.77
2017-11-24T13:11:16.346Z,1006.8
2017-11-24T13:12:25.013Z,1006.79
2017-11-24T13:13:34.191Z,1006.78
2017-11-24T13:14:43.378Z,1006.8
2017-11-24T13:15:52.655Z,1006.77
2017-11-24T13:17:01.868Z,1006.77
2017-11-24T13:18:10.524Z,1006.76
2017-11-24T13:19:19.735Z,1006.8
2017-11-24T13:20:28.384Z,1006.75
2017-11-24T13:21:37.821Z,1006.74
2017-11-24T13:22:46.993Z,1006.8
2017-11-24T13:23:56.474Z,1006.8
2017-11-24T13:25:06.200Z,1006.78
2017-11-24T13:26:14.896Z,1006.74
2017-11-24T13:27:23.827Z,1006.73
2017-11-24T13:28:33.101Z,1006.7
2017-11-24T13:29:41.770Z,1006.74
2017-11-24T13:30:51.207Z,1006.78
2017-11-24T13:32:00.395Z,1006.83
2017-11-24T13:33:09.055Z,1006.83
2017-11-24T13:34:18.503Z,1006.83
2017-11-24T13:35:27.175Z,1006.85
2017-11-24T13:36:36.355Z,1006.88
2017-11-24T13:37:45.327Z,1006.85
2017-11-24T13:38:54.518Z,1006.88
2017-11-24T13:40:03.911Z,1006.87
2017-11-24T13:41:12.627Z,1006.89
2017-11-24T13:42:21.576Z,1006.91
2017-11-24T13:43:30.795Z,1006.93
2017-11-24T13:44:40.400Z,1006.92
2017-11-24T13:45:49.371Z,1006.9
2017-11-24T13:46:58.306Z,1006.91
2017-11-24T13:48:07.224Z,1006.88
2017-11-24T13:49:16.668Z,1006.92
2017-11-24T13:50:26.365Z,1006.93
2017-11-24T13:51:35.329Z,1006.94
2017-11-24T13:52:44.552Z,1006.95
2017-11-24T13:53:53.487Z,1007
2017-11-24T13:55:02.778Z,1006.97
2017-11-24T13:56:12.791Z,1006.99
2017-11-24T13:57:21.499Z,1007.03
2017-11-24T13:58:30.523Z,1007.04
2017-11-24T13:59:39.991Z,1007.06
2017-11-24T14:00:49.482Z,1007.08